Rabbit Hole, Nevada
Current Conditions -  °F | °C
As of 10:53 PM on Thursday 30 Oct 2014 (Local Time) from KLOL Reporting Station
Clear Clear  
Wind Chill: 46°   Ceiling: Unl
Heat Index: 46°   Visibility: 10mi
Dew Point: 24°   Wind: 0mph
Humidity: 42%   Direction: NA
Pressure: 29.92"   Gusts: NA
Location:  40.3545°N, 118.628°W
Report Text: KLOL 310553Z AUTO 00000KT 10SM CLR 08/M04 A2992 RMK AO2 SLP124 T00781044 10206 20072 55003
Loading
Personal Weather Stations






























Interactive Weather Map
Tropical Storm Tracking
New forecast layout! Learn more

10-Day Weather Forecast

Advertisements
Track Severe Weather on mobile